Time;durP1;ratioP1;P1;durP2;ratioP2;P2;SDS_P1;SDS_P2;PMS_P1;PMS_P2;Temp;Humidity;BMP_temperature;BMP_pressure;BME280_temperature;BME280_humidity;BME280_pressure;Samples;Min_cycle;Max_cycle;Signal;HPM_P1;HPM_P2
2022/06/05 00:03:47;;;;;;;4.25;2.37;;;25.00;52.70;;;;;;2347452;53;21044;-76
2022/06/05 00:06:18;;;;;;;3.28;1.83;;;25.00;52.90;;;;;;2344388;53;21008;-78
2022/06/05 00:11:21;;;;;;;3.40;2.12;;;25.00;52.50;;;;;;2589898;53;21092;-78
2022/06/05 00:13:52;;;;;;;2.80;1.70;;;25.00;52.70;;;;;;2344070;53;20921;-78
2022/06/05 00:16:21;;;;;;;5.28;2.10;;;25.00;52.50;;;;;;2344470;53;20944;-77
2022/06/05 00:18:47;;;;;;;3.50;2.20;;;24.90;52.50;;;;;;2344529;53;21488;-79
2022/06/05 00:21:13;;;;;;;3.22;1.90;;;24.90;52.50;;;;;;2344242;53;20945;-78
2022/06/05 00:23:40;;;;;;;3.87;2.47;;;24.90;52.60;;;;;;2344207;53;21825;-78
2022/06/05 00:26:40;;;;;;;3.92;2.50;;;24.80;52.50;;;;;;2344018;53;21004;-77
2022/06/05 00:30:44;;;;;;;3.70;2.17;;;24.80;53.00;;;;;;2382272;53;21004;-78
2022/06/05 00:33:21;;;;;;;3.78;2.10;;;24.80;52.90;;;;;;2344618;53;20941;-77
2022/06/05 00:35:57;;;;;;;4.15;2.33;;;24.70;52.60;;;;;;2348224;53;20992;-77
2022/06/05 00:38:44;;;;;;;4.57;2.72;;;24.70;52.80;;;;;;2343651;53;21425;-78
2022/06/05 00:42:12;;;;;;;3.53;2.35;;;24.60;53.00;;;;;;2344311;53;20969;-77
2022/06/05 00:44:58;;;;;;;3.47;2.37;;;24.60;53.20;;;;;;2344187;53;21296;-79
2022/06/05 00:47:29;;;;;;;4.68;2.90;;;24.60;53.00;;;;;;2369487;53;21427;-77
2022/06/05 00:50:23;;;;;;;4.00;2.40;;;24.50;53.10;;;;;;2421021;53;21003;-78
2022/06/05 00:52:53;;;;;;;3.53;2.33;;;24.50;53.40;;;;;;2590164;52;20983;-78
2022/06/05 00:55:19;;;;;;;4.22;2.90;;;24.50;53.30;;;;;;2343669;53;20996;-78
2022/06/05 00:57:46;;;;;;;4.20;2.62;;;24.40;53.30;;;;;;2341253;53;21963;-77
2022/06/05 01:00:34;;;;;;;4.57;2.58;;;24.40;53.40;;;;;;2342971;53;20924;-77
2022/06/05 01:03:03;;;;;;;3.78;2.40;;;24.40;53.80;;;;;;2352166;53;20960;-78
2022/06/05 01:05:29;;;;;;;3.60;2.62;;;24.40;53.50;;;;;;2342712;53;20937;-78
2022/06/05 01:07:56;;;;;;;3.80;2.55;;;24.40;53.60;;;;;;2345090;53;21470;-78
2022/06/05 01:10:24;;;;;;;3.83;2.78;;;24.40;53.60;;;;;;2583949;53;20937;-77
2022/06/05 01:13:28;;;;;;;3.67;2.70;;;24.40;53.70;;;;;;2588434;53;21528;-78
2022/06/05 01:16:48;;;;;;;3.42;2.30;;;24.30;54.00;;;;;;2528184;53;21456;-78
2022/06/05 01:19:48;;;;;;;3.80;2.25;;;24.30;53.80;;;;;;2344824;53;20953;-78
2022/06/05 01:22:39;;;;;;;3.42;2.30;;;24.30;53.90;;;;;;2448409;53;20992;-79
2022/06/05 01:25:30;;;;;;;3.55;2.33;;;24.30;53.80;;;;;;2343277;53;21369;-78
2022/06/05 01:27:59;;;;;;;3.22;2.17;;;24.30;53.70;;;;;;2344320;53;20945;-78
2022/06/05 01:30:25;;;;;;;4.10;2.42;;;24.30;53.70;;;;;;2344114;53;20941;-77
2022/06/05 01:33:03;;;;;;;3.58;2.22;;;24.30;53.70;;;;;;2344501;53;21556;-77
2022/06/05 01:35:40;;;;;;;4.18;2.33;;;24.30;53.90;;;;;;2347830;53;21012;-77
2022/06/05 01:38:11;;;;;;;3.12;2.17;;;24.20;53.90;;;;;;2343803;53;20960;-77
2022/06/05 01:40:48;;;;;;;3.37;2.28;;;24.20;53.80;;;;;;2344321;53;21410;-78
2022/06/05 01:43:18;;;;;;;4.25;2.28;;;24.20;54.00;;;;;;2344209;53;20945;-78
2022/06/05 01:45:47;;;;;;;3.65;2.70;;;24.10;53.80;;;;;;2346133;53;20924;-78
2022/06/05 01:48:20;;;;;;;4.07;2.40;;;24.10;53.90;;;;;;2344398;53;21676;-77
2022/06/05 01:50:48;;;;;;;3.47;2.25;;;24.20;54.20;;;;;;2346766;53;21017;-77
2022/06/05 01:53:26;;;;;;;4.87;2.22;;;24.20;54.10;;;;;;2344297;53;20985;-77
2022/06/05 01:55:57;;;;;;;3.80;1.98;;;24.20;54.30;;;;;;2431418;53;20933;-76
2022/06/05 01:58:37;;;;;;;2.58;1.60;;;24.10;54.00;;;;;;2388656;53;20936;-77
2022/06/05 02:01:07;;;;;;;3.95;1.87;;;24.10;53.90;;;;;;2344184;53;21004;-78
2022/06/05 02:03:40;;;;;;;2.47;1.45;;;24.20;54.10;;;;;;2344181;53;20940;-78
2022/06/05 02:06:11;;;;;;;4.00;1.80;;;24.20;54.10;;;;;;2344497;53;20989;-78
2022/06/05 02:08:44;;;;;;;2.83;1.90;;;24.20;54.20;;;;;;2343902;53;20973;-78
2022/06/05 02:11:22;;;;;;;3.55;1.67;;;24.20;54.30;;;;;;2345998;53;20936;-79
2022/06/05 02:13:55;;;;;;;3.58;2.12;;;24.30;54.40;;;;;;2352669;53;20921;-77
2022/06/05 02:16:21;;;;;;;3.50;1.90;;;24.30;54.50;;;;;;2344163;53;21472;-81
2022/06/05 02:18:48;;;;;;;4.53;1.90;;;24.40;54.50;;;;;;2344518;53;20913;-78
2022/06/05 02:21:14;;;;;;;3.62;1.80;;;24.40;54.60;;;;;;2477596;53;21450;-76
2022/06/05 02:23:41;;;;;;;3.90;2.20;;;24.40;54.80;;;;;;2415803;53;20983;-77
2022/06/05 02:26:08;;;;;;;3.85;2.45;;;24.40;54.80;;;;;;2404219;53;21105;-76
2022/06/05 02:28:34;;;;;;;4.05;2.53;;;24.40;54.80;;;;;;2343358;53;20969;-78
2022/06/05 02:33:57;;;;;;;5.93;2.30;;;24.40;55.00;;;;;;2344713;53;21041;-77
2022/06/05 02:36:46;;;;;;;5.95;2.30;;;24.40;55.50;;;;;;2344226;53;21008;-76
2022/06/05 02:41:53;;;;;;;3.17;1.73;;;24.40;55.60;;;;;;2515994;53;20989;-76
2022/06/05 02:46:00;;;;;;;3.37;1.95;;;24.40;55.40;;;;;;2344165;53;20929;-77
2022/06/05 02:48:35;;;;;;;5.12;1.98;;;24.30;55.60;;;;;;2523433;53;20921;-75
2022/06/05 02:51:22;;;;;;;3.67;2.10;;;24.30;55.30;;;;;;2344255;53;21104;-76
2022/06/05 02:53:50;;;;;;;3.12;1.92;;;24.20;55.30;;;;;;2344094;53;21399;-78
2022/06/05 02:56:16;;;;;;;4.28;2.78;;;24.20;55.40;;;;;;2394766;53;20993;-75
2022/06/05 02:58:43;;;;;;;4.72;2.45;;;24.20;55.60;;;;;;2343873;53;21016;-77
2022/06/05 03:03:54;;;;;;;3.10;2.05;;;24.20;55.80;;;;;;2344266;53;21040;-77
2022/06/05 03:06:20;;;;;;;3.67;2.05;;;24.20;55.80;;;;;;2445290;53;21300;-76
2022/06/05 03:08:47;;;;;;;3.37;2.10;;;24.10;55.80;;;;;;2590230;53;20968;-76
2022/06/05 03:11:13;;;;;;;3.53;2.17;;;24.10;55.90;;;;;;2415904;53;20972;-76
2022/06/05 03:13:39;;;;;;;3.95;2.08;;;24.10;56.00;;;;;;2346669;53;21776;-76
2022/06/05 03:16:07;;;;;;;2.85;1.90;;;24.10;56.10;;;;;;2343327;53;21020;-77
2022/06/05 03:18:34;;;;;;;3.47;2.12;;;24.10;56.10;;;;;;2347284;53;21020;-78
2022/06/05 03:21:00;;;;;;;6.47;2.35;;;24.10;56.10;;;;;;2343949;53;20944;-77
2022/06/05 03:23:27;;;;;;;3.00;1.85;;;24.10;56.30;;;;;;2584335;53;21014;-76
2022/06/05 03:25:53;;;;;;;3.33;1.70;;;24.10;56.40;;;;;;2402698;53;20944;-76
2022/06/05 03:28:19;;;;;;;4.65;2.00;;;24.10;56.30;;;;;;2352490;53;21378;-77
2022/06/05 03:30:45;;;;;;;3.17;2.03;;;24.10;56.40;;;;;;2366529;53;20928;-76
2022/06/05 03:33:12;;;;;;;3.22;2.10;;;24.00;56.30;;;;;;2424926;53;20913;-76
2022/06/05 03:35:40;;;;;;;4.85;2.42;;;24.00;56.30;;;;;;2343784;53;20936;-77
2022/06/05 03:38:07;;;;;;;4.28;2.42;;;24.00;56.40;;;;;;2344043;53;20937;-76
2022/06/05 03:40:33;;;;;;;3.25;2.08;;;24.00;57.10;;;;;;2343842;53;21708;-77
2022/06/05 03:42:59;;;;;;;3.50;2.10;;;24.00;56.60;;;;;;2407637;53;21366;-76
2022/06/05 03:45:25;;;;;;;3.50;2.30;;;23.90;56.50;;;;;;2343289;53;21441;-76
2022/06/05 03:47:52;;;;;;;3.40;1.90;;;24.00;56.60;;;;;;2344095;53;21012;-76
2022/06/05 03:50:18;;;;;;;3.62;2.30;;;23.90;56.70;;;;;;2343624;53;20924;-76
2022/06/05 03:52:45;;;;;;;3.47;2.17;;;23.90;56.90;;;;;;2343208;53;21441;-76
2022/06/05 03:55:13;;;;;;;3.17;2.00;;;23.90;57.00;;;;;;2342760;53;20924;-76
2022/06/05 03:57:39;;;;;;;4.90;1.85;;;23.90;57.10;;;;;;2347418;53;21279;-76
2022/06/05 04:00:06;;;;;;;3.20;2.00;;;23.90;57.00;;;;;;2343538;53;21354;-76
2022/06/05 04:02:32;;;;;;;2.87;1.73;;;23.90;57.10;;;;;;2343569;53;21001;-75
2022/06/05 04:05:00;;;;;;;2.70;1.67;;;23.90;57.00;;;;;;2410352;53;21683;-75
2022/06/05 04:07:26;;;;;;;3.58;2.12;;;23.90;57.10;;;;;;2587527;52;21521;-76
2022/06/05 04:09:52;;;;;;;3.60;1.90;;;23.90;57.20;;;;;;2343559;53;21029;-76
2022/06/05 04:12:18;;;;;;;3.10;1.50;;;23.80;57.10;;;;;;2590917;53;21359;-75
2022/06/05 04:14:45;;;;;;;3.50;2.12;;;23.80;57.10;;;;;;2589034;53;20937;-77
2022/06/05 04:17:11;;;;;;;4.20;2.25;;;23.80;57.20;;;;;;2444208;53;21004;-75
2022/06/05 04:19:37;;;;;;;5.70;2.30;;;23.80;57.40;;;;;;2344961;53;20984;-75
2022/06/05 04:22:04;;;;;;;3.70;2.12;;;23.80;57.50;;;;;;2541269;52;21013;-75
2022/06/05 04:24:30;;;;;;;4.45;2.15;;;23.80;57.50;;;;;;2348973;53;21381;-75
2022/06/05 04:26:56;;;;;;;4.10;2.15;;;23.80;57.50;;;;;;2343020;53;21390;-77
2022/06/05 04:29:23;;;;;;;4.55;2.45;;;23.80;57.50;;;;;;2341752;53;20965;-75
2022/06/05 04:31:49;;;;;;;5.32;2.55;;;23.80;57.70;;;;;;2345608;53;21109;-76
2022/06/05 04:34:19;;;;;;;4.93;2.50;;;23.70;57.70;;;;;;2588967;52;20976;-76
2022/06/05 04:36:46;;;;;;;3.47;2.20;;;23.70;57.80;;;;;;2344244;53;20974;-75
2022/06/05 04:39:12;;;;;;;4.75;2.33;;;23.70;57.80;;;;;;2347983;53;21710;-75
2022/06/05 04:41:39;;;;;;;3.97;2.28;;;23.70;57.80;;;;;;2348095;53;21001;-75
2022/06/05 04:44:06;;;;;;;4.20;2.55;;;23.70;57.90;;;;;;2343396;53;20996;-76
2022/06/05 04:46:32;;;;;;;5.35;2.35;;;23.70;58.10;;;;;;2435797;53;21056;-76
2022/06/05 04:48:58;;;;;;;4.15;2.33;;;23.60;58.00;;;;;;2386252;53;20973;-77
2022/06/05 04:51:24;;;;;;;4.47;2.40;;;23.60;58.00;;;;;;2347725;53;21269;-75
2022/06/05 04:53:51;;;;;;;4.12;2.35;;;23.60;58.10;;;;;;2343846;53;21493;-78
2022/06/05 04:56:22;;;;;;;3.92;2.60;;;23.60;58.10;;;;;;2352940;53;21057;-76
2022/06/05 04:58:48;;;;;;;4.40;2.45;;;23.60;58.40;;;;;;2452590;52;21004;-77
2022/06/05 05:01:26;;;;;;;4.50;2.50;;;23.60;58.30;;;;;;2347385;53;21080;-76
2022/06/05 05:03:53;;;;;;;4.00;2.15;;;23.60;58.50;;;;;;2344428;53;21406;-76
2022/06/05 05:06:20;;;;;;;4.43;2.35;;;23.60;58.30;;;;;;2344307;53;20977;-75
2022/06/05 05:08:46;;;;;;;3.53;2.28;;;23.60;58.30;;;;;;2344430;53;21339;-75
2022/06/05 05:11:12;;;;;;;3.87;2.30;;;23.60;58.40;;;;;;2344452;53;21017;-76
2022/06/05 05:13:39;;;;;;;4.20;2.50;;;23.60;58.40;;;;;;2344201;53;21004;-76
2022/06/05 05:16:05;;;;;;;4.95;2.45;;;23.60;58.50;;;;;;2511018;53;20988;-76
2022/06/05 05:18:32;;;;;;;3.70;2.25;;;23.60;58.50;;;;;;2590543;53;21360;-76
2022/06/05 05:21:09;;;;;;;3.95;2.65;;;23.60;58.60;;;;;;2443538;53;20981;-77
2022/06/05 05:23:36;;;;;;;3.95;2.35;;;23.60;58.90;;;;;;2342950;53;20996;-75
2022/06/05 05:26:10;;;;;;;4.28;2.53;;;23.60;58.60;;;;;;2589082;53;20973;-76
2022/06/05 05:28:36;;;;;;;4.50;2.12;;;23.60;59.40;;;;;;2588895;53;20917;-77
2022/06/05 05:31:06;;;;;;;3.92;2.30;;;23.60;58.70;;;;;;2343638;53;21707;-78
2022/06/05 05:33:32;;;;;;;4.25;2.37;;;23.60;58.70;;;;;;2343385;53;21457;-76
2022/06/05 05:35:58;;;;;;;4.65;2.30;;;23.70;58.80;;;;;;2562283;53;20957;-76
2022/06/05 05:38:25;;;;;;;4.57;2.67;;;23.70;58.90;;;;;;2341939;53;21082;-76
2022/06/05 05:43:36;;;;;;;3.67;2.35;;;23.70;59.00;;;;;;2343507;53;20917;-76
2022/06/05 05:46:02;;;;;;;4.65;2.33;;;23.70;58.90;;;;;;2496330;53;20936;-76
2022/06/05 05:48:28;;;;;;;3.87;2.70;;;23.70;58.90;;;;;;2587733;52;20968;-76
2022/06/05 05:50:55;;;;;;;5.15;2.53;;;23.70;59.00;;;;;;2348335;53;21489;-76
2022/06/05 05:53:21;;;;;;;3.62;2.30;;;23.70;59.10;;;;;;2431941;53;21391;-77
2022/06/05 05:55:47;;;;;;;3.70;2.20;;;23.70;59.10;;;;;;2504637;53;20990;-76
2022/06/05 05:58:14;;;;;;;3.80;1.90;;;23.70;59.00;;;;;;2343852;53;21373;-75
2022/06/05 06:00:40;;;;;;;2.80;1.70;;;23.70;59.00;;;;;;2343332;53;21018;-76
2022/06/05 06:03:06;;;;;;;3.28;2.08;;;23.70;59.00;;;;;;2349944;53;20974;-76
2022/06/05 06:05:34;;;;;;;3.28;2.00;;;23.70;59.00;;;;;;2587119;53;20948;-77
2022/06/05 06:08:00;;;;;;;3.75;1.87;;;23.70;59.10;;;;;;2346452;53;20976;-77
2022/06/05 06:10:26;;;;;;;3.90;2.05;;;23.70;59.20;;;;;;2344779;53;21588;-76
2022/06/05 06:12:53;;;;;;;3.22;1.85;;;23.80;59.30;;;;;;2339078;53;20945;-75
2022/06/05 06:15:19;;;;;;;3.50;2.00;;;23.70;59.30;;;;;;2337097;53;20956;-77
2022/06/05 06:17:46;;;;;;;4.12;2.28;;;23.70;59.40;;;;;;2349987;53;20945;-76
2022/06/05 06:20:12;;;;;;;3.85;1.95;;;23.70;59.50;;;;;;2348993;53;20929;-76
2022/06/05 06:22:41;;;;;;;2.75;1.73;;;23.80;59.60;;;;;;2321074;54;22167;-76
2022/06/05 06:25:08;;;;;;;3.47;1.92;;;23.80;59.60;;;;;;2344207;54;21235;-76
2022/06/05 06:27:34;;;;;;;3.10;1.85;;;23.80;59.60;;;;;;2425602;52;20937;-76
2022/06/05 06:30:00;;;;;;;4.18;2.00;;;23.80;59.60;;;;;;2334167;54;21066;-77
2022/06/05 06:32:26;;;;;;;3.10;1.95;;;23.80;59.60;;;;;;2426512;53;20950;-77
2022/06/05 06:34:55;;;;;;;2.87;1.95;;;23.80;59.70;;;;;;2608643;52;21467;-77
2022/06/05 06:37:21;;;;;;;4.15;2.20;;;23.80;60.40;;;;;;2336904;53;21008;-76
2022/06/05 06:39:50;;;;;;;3.37;2.00;;;23.80;59.80;;;;;;2322044;54;20954;-76
2022/06/05 06:42:17;;;;;;;2.70;1.62;;;23.80;59.80;;;;;;2340681;53;20983;-76
2022/06/05 06:44:43;;;;;;;4.72;2.10;;;23.80;59.70;;;;;;2444524;53;21484;-78
2022/06/05 06:47:09;;;;;;;3.70;2.60;;;23.90;59.90;;;;;;2341950;54;21009;-75
2022/06/05 06:49:35;;;;;;;4.12;2.45;;;23.90;59.90;;;;;;2331414;54;20941;-76
2022/06/05 06:52:02;;;;;;;3.83;2.30;;;23.90;59.90;;;;;;2349756;53;20958;-78
2022/06/05 06:54:28;;;;;;;3.97;2.55;;;23.90;59.90;;;;;;2608453;52;20967;-77
2022/06/05 06:56:54;;;;;;;3.90;2.17;;;23.90;60.00;;;;;;2351679;53;20968;-79
2022/06/05 06:59:23;;;;;;;3.25;2.30;;;23.90;60.00;;;;;;2323635;53;21795;-75
2022/06/05 07:01:49;;;;;;;3.97;2.30;;;23.90;60.10;;;;;;2336101;53;21001;-76
2022/06/05 07:04:17;;;;;;;4.57;2.47;;;23.90;60.00;;;;;;2345528;53;20927;-79
2022/06/05 07:06:43;;;;;;;3.20;2.12;;;23.90;60.10;;;;;;2326610;54;21331;-75
2022/06/05 07:09:13;;;;;;;3.17;2.12;;;23.90;60.10;;;;;;2339937;53;20977;-74
2022/06/05 07:11:40;;;;;;;3.47;2.33;;;23.90;60.10;;;;;;2334710;53;20918;-75
2022/06/05 07:14:07;;;;;;;4.10;2.37;;;24.00;60.30;;;;;;2320359;54;21005;-78
2022/06/05 07:16:38;;;;;;;5.05;2.67;;;24.00;60.50;;;;;;2327319;54;21044;-75
2022/06/05 07:19:05;;;;;;;3.85;1.98;;;24.00;60.80;;;;;;2356116;53;21018;-75
2022/06/05 07:21:31;;;;;;;3.53;2.08;;;24.10;60.60;;;;;;2380359;53;21336;-74
2022/06/05 07:23:58;;;;;;;4.18;2.28;;;24.10;60.60;;;;;;2335684;53;20985;-76
2022/06/05 07:26:26;;;;;;;3.37;2.00;;;24.10;60.60;;;;;;2325771;54;21317;-75
2022/06/05 07:28:53;;;;;;;4.03;2.17;;;24.20;60.70;;;;;;2341441;54;20932;-75
2022/06/05 07:31:20;;;;;;;3.60;2.33;;;24.20;60.70;;;;;;2329188;53;21006;-75
2022/06/05 07:33:46;;;;;;;4.28;2.53;;;24.20;60.80;;;;;;2325170;54;21453;-74
2022/06/05 07:36:13;;;;;;;3.33;2.42;;;24.30;61.00;;;;;;2576895;52;20977;-72
2022/06/05 07:38:40;;;;;;;3.62;2.30;;;24.30;61.20;;;;;;2327526;53;21068;-73
2022/06/05 07:41:13;;;;;;;3.30;2.00;;;24.30;61.20;;;;;;2345645;54;20929;-74
2022/06/05 07:43:40;;;;;;;4.62;2.75;;;24.40;61.40;;;;;;2382770;53;21016;-73
2022/06/05 07:46:06;;;;;;;3.50;2.30;;;24.50;61.40;;;;;;2470190;53;21573;-74
2022/06/05 07:48:33;;;;;;;3.25;2.10;;;24.50;61.30;;;;;;2341300;53;20957;-73
2022/06/05 07:56:36;;;;;;;5.55;2.83;;;24.70;61.40;;;;;;2331003;54;21486;-73
2022/06/05 07:59:42;;;;;;;4.75;3.33;;;24.80;61.30;;;;;;2338382;53;20969;-72
2022/06/05 08:02:11;;;;;;;3.78;2.62;;;24.90;61.70;;;;;;2316356;54;20953;-72
2022/06/05 08:04:38;;;;;;;5.40;3.50;;;24.90;61.10;;;;;;2348182;53;20925;-73
2022/06/05 08:07:05;;;;;;;3.95;2.87;;;25.00;61.10;;;;;;2327090;54;21263;-75
2022/06/05 08:09:32;;;;;;;5.65;3.42;;;25.00;61.20;;;;;;2337902;53;21438;-72
2022/06/05 08:11:58;;;;;;;5.10;3.72;;;25.00;61.10;;;;;;2582365;52;20950;-72
2022/06/05 08:14:24;;;;;;;5.85;3.72;;;25.10;61.20;;;;;;2366152;53;21006;-73
2022/06/05 08:16:51;;;;;;;5.20;3.65;;;25.20;61.30;;;;;;2343041;54;20958;-74
2022/06/05 08:19:19;;;;;;;4.40;3.42;;;25.20;61.20;;;;;;2608684;52;20931;-73
2022/06/05 08:21:46;;;;;;;6.18;3.80;;;25.20;61.20;;;;;;2370767;53;21030;-74
2022/06/05 08:24:12;;;;;;;4.90;3.78;;;25.30;61.10;;;;;;2515985;52;20982;-73
2022/06/05 08:26:38;;;;;;;5.35;3.67;;;25.30;61.00;;;;;;2462074;52;21509;-73
2022/06/05 08:29:05;;;;;;;5.47;4.20;;;25.40;61.00;;;;;;2325071;54;21407;-73
2022/06/05 08:31:32;;;;;;;9.02;4.75;;;25.40;61.00;;;;;;2329178;54;20926;-74
2022/06/05 08:33:59;;;;;;;6.85;4.80;;;25.40;61.00;;;;;;2320225;54;21034;-72
2022/06/05 08:36:25;;;;;;;5.82;4.50;;;25.50;60.90;;;;;;2337751;53;20949;-73
2022/06/05 08:42:09;;;;;;;5.72;4.07;;;25.50;60.90;;;;;;2476427;53;20962;-74
2022/06/05 08:44:57;;;;;;;4.30;3.58;;;25.60;61.20;;;;;;2322933;53;20946;-73
2022/06/05 08:47:35;;;;;;;5.10;4.20;;;25.60;60.90;;;;;;2347017;54;20924;-75
2022/06/05 08:50:53;;;;;;;5.43;4.10;;;25.60;60.90;;;;;;2330310;54;20935;-73
2022/06/05 08:53:31;;;;;;;6.70;4.37;;;25.60;61.10;;;;;;2324955;54;21010;-73
2022/06/05 08:56:00;;;;;;;6.20;4.32;;;25.70;60.80;;;;;;2359117;53;21555;-75
2022/06/05 08:58:40;;;;;;;5.40;4.50;;;25.70;60.60;;;;;;2358438;53;20964;-74
2022/06/05 09:01:12;;;;;;;5.35;4.00;;;25.70;60.60;;;;;;2319610;54;21598;-74
2022/06/05 09:04:03;;;;;;;5.30;4.22;;;25.70;60.90;;;;;;2400027;53;21734;-75
2022/06/05 09:06:34;;;;;;;5.10;4.25;;;25.80;61.40;;;;;;2328096;53;20939;-74
2022/06/05 09:09:05;;;;;;;5.53;4.57;;;25.80;61.10;;;;;;2340181;53;20961;-73
2022/06/05 09:12:03;;;;;;;5.53;4.25;;;25.90;61.10;;;;;;2582687;53;21068;-74
2022/06/05 09:14:40;;;;;;;7.30;4.47;;;26.00;61.60;;;;;;2325855;53;20998;-74
2022/06/05 09:17:12;;;;;;;5.70;4.62;;;26.00;61.10;;;;;;2346924;53;21012;-74
2022/06/05 09:19:39;;;;;;;5.50;4.45;;;26.00;61.10;;;;;;2359696;53;20971;-75
2022/06/05 09:22:15;;;;;;;5.62;4.10;;;26.10;61.00;;;;;;2342240;54;20936;-74
2022/06/05 09:31:37;;;;;;;6.47;3.97;;;26.10;61.00;;;;;;2337138;54;20993;-75
2022/06/05 09:35:39;;;;;;;4.50;2.85;;;26.40;60.30;;;;;;2340370;53;21018;-75
2022/06/05 09:38:29;;;;;;;4.45;3.20;;;26.40;60.40;;;;;;2336369;54;21784;-74
2022/06/05 09:45:33;;;;;;;4.55;3.47;;;26.50;60.70;;;;;;2342891;54;21214;-76
2022/06/05 09:50:09;;;;;;;5.12;2.80;;;26.60;60.50;;;;;;2342559;53;20928;-71
2022/06/05 09:52:36;;;;;;;3.75;2.75;;;26.70;60.50;;;;;;2335494;54;21023;-75
2022/06/05 09:55:16;;;;;;;5.80;3.60;;;26.70;60.20;;;;;;2331624;54;20955;-74
2022/06/05 10:00:51;;;;;;;6.18;4.10;;;26.80;60.80;;;;;;2395017;53;21274;-72
2022/06/05 10:03:26;;;;;;;3.93;2.73;;;26.90;60.50;;;;;;2338795;54;20984;-73
2022/06/05 10:06:28;;;;;;;4.35;3.00;;;27.00;60.70;;;;;;2324006;54;21041;-73
2022/06/05 10:09:18;;;;;;;4.80;3.15;;;27.10;60.40;;;;;;2345796;53;20996;-74
2022/06/05 10:11:58;;;;;;;5.03;2.97;;;27.10;60.10;;;;;;2336403;54;20940;-73
2022/06/05 10:14:32;;;;;;;4.10;2.97;;;27.20;59.90;;;;;;2359461;53;20947;-74
2022/06/05 10:24:10;;;;;;;5.87;3.20;;;27.20;59.70;;;;;;2549755;53;20994;-74
2022/06/05 10:26:38;;;;;;;4.22;2.53;;;27.30;59.50;;;;;;2339058;53;21589;-73
2022/06/05 10:29:17;;;;;;;4.70;2.35;;;27.40;59.00;;;;;;2343269;53;21005;-73
2022/06/05 10:31:58;;;;;;;7.00;2.95;;;27.40;58.70;;;;;;2337870;53;21902;-72
2022/06/05 10:34:47;;;;;;;4.32;2.58;;;27.40;58.50;;;;;;2326240;54;21015;-72
2022/06/05 10:38:37;;;;;;;4.45;2.40;;;27.40;58.90;;;;;;2593520;53;20987;-75
2022/06/05 10:42:39;;;;;;;3.60;2.08;;;27.40;58.20;;;;;;2328624;53;20953;-73
2022/06/05 10:45:23;;;;;;;3.40;2.00;;;27.40;58.30;;;;;;2382002;53;21057;-73
2022/06/05 10:48:08;;;;;;;3.40;2.28;;;27.40;58.40;;;;;;2340108;53;21021;-73
2022/06/05 10:50:42;;;;;;;4.97;2.67;;;27.40;58.50;;;;;;2346731;53;21001;-72
2022/06/05 10:54:20;;;;;;;5.20;2.45;;;27.40;58.60;;;;;;2333918;54;21079;-72
2022/06/05 10:56:58;;;;;;;4.22;2.65;;;27.50;58.70;;;;;;2324376;53;20958;-75
2022/06/05 11:00:03;;;;;;;4.05;2.20;;;27.50;58.50;;;;;;2333148;53;21569;-74
2022/06/05 11:03:01;;;;;;;4.78;2.58;;;27.60;58.70;;;;;;2342161;54;21901;-76
2022/06/05 11:08:44;;;;;;;4.00;2.22;;;27.60;58.30;;;;;;2357872;53;20947;-75
2022/06/05 11:15:52;;;;;;;3.00;1.67;;;27.80;57.50;;;;;;2349148;53;21019;-75
2022/06/05 11:21:51;;;;;;;3.25;1.77;;;27.80;57.30;;;;;;2485874;53;21040;-76
2022/06/05 11:24:39;;;;;;;2.70;1.40;;;27.90;56.90;;;;;;2344950;53;21423;-76
2022/06/05 11:27:40;;;;;;;2.92;1.48;;;28.00;56.50;;;;;;2331327;53;20938;-75
2022/06/05 11:31:50;;;;;;;3.47;1.25;;;28.00;56.30;;;;;;2347938;53;20964;-74
2022/06/05 11:36:40;;;;;;;2.83;1.33;;;28.00;56.20;;;;;;2343951;53;20940;-74
2022/06/05 11:40:56;;;;;;;2.33;0.90;;;28.10;56.30;;;;;;2341607;52;20944;-75
2022/06/05 11:46:35;;;;;;;1.83;0.70;;;28.20;55.40;;;;;;2472764;53;20995;-75
2022/06/05 11:49:22;;;;;;;1.70;0.62;;;28.40;54.90;;;;;;2335950;54;21094;-74
2022/06/05 11:55:06;;;;;;;1.92;0.70;;;28.40;54.30;;;;;;2527297;52;21938;-75
2022/06/05 11:57:48;;;;;;;1.50;0.70;;;28.40;54.50;;;;;;2335201;54;21980;-74
2022/06/05 12:00:25;;;;;;;2.45;0.80;;;28.50;54.20;;;;;;2347049;53;21005;-74
2022/06/05 12:07:42;;;;;;;1.05;0.50;;;28.50;54.30;;;;;;2350450;53;21011;-74
2022/06/05 12:10:12;;;;;;;3.05;0.70;;;28.50;54.30;;;;;;2344391;53;21019;-76
2022/06/05 12:12:44;;;;;;;3.15;0.80;;;28.60;54.40;;;;;;2334133;53;21488;-76
2022/06/05 12:15:31;;;;;;;2.42;0.57;;;28.60;54.10;;;;;;2397816;53;21039;-75
2022/06/05 12:18:11;;;;;;;2.03;0.75;;;28.60;53.90;;;;;;2342706;54;21020;-73
2022/06/05 12:20:51;;;;;;;1.90;0.80;;;28.60;54.00;;;;;;2338479;54;20996;-74
2022/06/05 12:23:33;;;;;;;1.75;0.70;;;28.60;53.20;;;;;;2335853;53;20924;-74
2022/06/05 12:26:23;;;;;;;2.30;0.85;;;28.60;52.80;;;;;;2343197;54;21520;-74
2022/06/05 12:29:10;;;;;;;1.92;0.60;;;28.60;53.10;;;;;;2334823;54;20936;-74
2022/06/05 12:31:46;;;;;;;1.65;0.73;;;28.60;53.00;;;;;;2336669;53;21042;-74
2022/06/05 12:35:46;;;;;;;2.10;0.70;;;28.60;52.90;;;;;;2341763;53;20975;-75
2022/06/05 12:38:31;;;;;;;2.00;0.60;;;28.70;53.00;;;;;;2335660;54;21006;-74
2022/06/05 12:41:02;;;;;;;1.85;0.70;;;28.70;52.70;;;;;;2527738;52;21706;-75
2022/06/05 12:45:17;;;;;;;1.23;0.50;;;28.70;53.20;;;;;;2336589;53;20970;-74
2022/06/05 12:48:15;;;;;;;1.02;0.47;;;28.70;53.30;;;;;;2335089;53;21005;-75
2022/06/05 12:51:07;;;;;;;2.03;0.80;;;28.80;53.10;;;;;;2326346;54;20928;-74
2022/06/05 12:53:59;;;;;;;1.30;0.60;;;28.80;52.80;;;;;;2344392;53;21107;-74
2022/06/05 12:56:48;;;;;;;2.03;0.68;;;28.80;52.80;;;;;;2336339;53;20992;-74
2022/06/05 12:59:31;;;;;;;2.50;0.65;;;28.90;52.80;;;;;;2338429;54;21986;-76
2022/06/05 13:03:57;;;;;;;1.50;0.60;;;28.90;52.50;;;;;;2588580;53;21393;-75
2022/06/05 13:08:05;;;;;;;1.23;0.52;;;28.90;52.50;;;;;;2342425;53;20921;-75
2022/06/05 13:10:39;;;;;;;2.35;0.62;;;29.00;52.50;;;;;;2337791;53;20955;-75
2022/06/05 13:13:21;;;;;;;3.28;0.70;;;29.00;52.40;;;;;;2339676;53;20976;-76
2022/06/05 13:15:59;;;;;;;3.90;0.60;;;29.00;52.30;;;;;;2325088;53;21018;-75
2022/06/05 13:19:02;;;;;;;3.03;0.95;;;29.10;52.60;;;;;;2324658;54;21455;-76
2022/06/05 13:21:39;;;;;;;3.12;0.90;;;29.10;52.40;;;;;;2340905;53;20996;-74
2022/06/05 13:24:43;;;;;;;1.67;0.55;;;29.20;52.40;;;;;;2504259;53;20986;-74
2022/06/05 13:32:34;;;;;;;2.85;0.90;;;29.20;52.20;;;;;;2348728;54;20964;-73
2022/06/05 13:35:47;;;;;;;1.00;0.40;;;29.30;51.90;;;;;;2426423;52;20974;-75
2022/06/05 13:39:58;;;;;;;1.10;0.30;;;29.50;50.90;;;;;;2347427;53;20964;-74
2022/06/05 13:42:25;;;;;;;1.05;0.50;;;29.50;50.30;;;;;;2328092;53;21093;-73
2022/06/05 13:44:54;;;;;;;1.95;0.47;;;29.60;50.50;;;;;;2363024;53;21175;-74
2022/06/05 13:49:43;;;;;;;1.20;0.50;;;29.60;50.10;;;;;;2352976;53;21044;-75
2022/06/05 13:55:46;;;;;;;1.73;0.60;;;29.60;49.70;;;;;;2347325;53;20972;-73
2022/06/05 14:01:54;;;;;;;1.02;0.45;;;29.60;49.60;;;;;;2335884;54;21050;-72
2022/06/05 14:04:24;;;;;;;1.48;0.43;;;29.60;48.50;;;;;;2319720;54;20959;-74
2022/06/05 14:07:15;;;;;;;1.65;0.60;;;29.70;49.00;;;;;;2388292;53;21808;-74
2022/06/05 14:09:45;;;;;;;1.23;0.47;;;29.70;48.00;;;;;;2555595;53;21055;-72
2022/06/05 14:12:31;;;;;;;1.52;0.50;;;29.70;48.20;;;;;;2326292;53;20984;-74
2022/06/05 14:14:57;;;;;;;2.00;0.50;;;29.60;47.40;;;;;;2555634;53;20965;-74
2022/06/05 14:17:39;;;;;;;0.62;0.40;;;29.70;48.10;;;;;;2575376;52;21751;-74
2022/06/05 14:20:20;;;;;;;1.70;0.43;;;29.70;47.00;;;;;;2311651;54;21602;-73
2022/06/05 14:22:56;;;;;;;0.62;0.30;;;29.70;47.10;;;;;;2334448;53;20933;-75
2022/06/05 14:25:42;;;;;;;3.03;0.40;;;29.70;47.50;;;;;;2395731;53;20985;-74
2022/06/05 14:28:10;;;;;;;1.08;0.37;;;29.70;46.80;;;;;;2320965;53;21436;-75
2022/06/05 14:30:51;;;;;;;1.58;0.68;;;29.70;46.60;;;;;;2349283;53;20945;-75
2022/06/05 14:33:19;;;;;;;1.62;0.28;;;29.60;45.60;;;;;;2296042;54;20939;-76
2022/06/05 14:35:50;;;;;;;2.25;0.65;;;29.50;45.30;;;;;;2325433;54;20920;-79
2022/06/05 14:38:29;;;;;;;1.33;0.37;;;29.30;45.50;;;;;;2337790;55;20988;-75
2022/06/05 14:41:19;;;;;;;2.50;0.47;;;29.10;45.50;;;;;;2329081;53;20953;-76
2022/06/05 14:44:05;;;;;;;1.23;0.45;;;28.90;45.80;;;;;;2363467;53;20928;-77
2022/06/05 14:46:56;;;;;;;2.17;0.55;;;28.70;45.90;;;;;;2337180;54;20929;-78
2022/06/05 14:49:58;;;;;;;0.80;0.20;;;28.40;46.60;;;;;;2562701;52;20939;-75
2022/06/05 14:52:36;;;;;;;1.03;0.40;;;28.20;46.70;;;;;;2317897;53;20924;-76
2022/06/05 15:05:24;;;;;;;1.50;0.50;;;27.80;47.70;;;;;;2451755;53;22462;-75
2022/06/05 15:08:00;;;;;;;0.82;0.30;;;27.60;48.10;;;;;;2317211;53;20974;-75
2022/06/05 15:10:47;;;;;;;1.02;0.37;;;27.10;48.90;;;;;;2318482;53;21021;-75
2022/06/05 15:13:38;;;;;;;1.23;0.50;;;27.00;49.40;;;;;;2317336;53;21000;-75
2022/06/05 15:17:09;;;;;;;1.37;0.73;;;26.90;50.00;;;;;;2317257;53;21583;-76
2022/06/05 15:19:36;;;;;;;1.20;0.30;;;26.70;50.10;;;;;;2317573;53;20948;-74